sensor_id;sensor_type;location;lat;lon;timestamp;P1;durP1;ratioP1;P2;durP2;ratioP2
56039;SDS011;43937;41.366;2.072;2022-10-23T00:01:44;3.70;;;1.77;;
56039;SDS011;43937;41.366;2.072;2022-10-23T00:04:11;2.90;;;1.90;;
56039;SDS011;43937;41.366;2.072;2022-10-23T00:06:36;8.52;;;1.70;;
56039;SDS011;43937;41.366;2.072;2022-10-23T00:09:03;4.40;;;1.52;;
56039;SDS011;43937;41.366;2.072;2022-10-23T00:11:30;6.00;;;1.77;;
56039;SDS011;43937;41.366;2.072;2022-10-23T00:13:57;2.20;;;1.70;;
56039;SDS011;43937;41.366;2.072;2022-10-23T00:16:24;4.75;;;1.77;;
56039;SDS011;43937;41.366;2.072;2022-10-23T00:18:49;0.93;;;0.82;;
56039;SDS011;43937;41.366;2.072;2022-10-23T00:21:15;3.63;;;1.58;;
56039;SDS011;43937;41.366;2.072;2022-10-23T00:23:41;3.88;;;1.30;;
56039;SDS011;43937;41.366;2.072;2022-10-23T00:26:07;1.75;;;0.90;;
56039;SDS011;43937;41.366;2.072;2022-10-23T00:28:39;1.70;;;0.90;;
56039;SDS011;43937;41.366;2.072;2022-10-23T00:31:08;3.30;;;0.95;;
56039;SDS011;43937;41.366;2.072;2022-10-23T00:34:06;3.65;;;1.42;;
56039;SDS011;43937;41.366;2.072;2022-10-23T00:36:32;4.03;;;1.10;;
56039;SDS011;43937;41.366;2.072;2022-10-23T00:38:58;4.40;;;1.17;;
56039;SDS011;43937;41.366;2.072;2022-10-23T00:41:25;6.53;;;1.20;;
56039;SDS011;43937;41.366;2.072;2022-10-23T00:44:04;2.38;;;1.35;;
56039;SDS011;43937;41.366;2.072;2022-10-23T00:46:34;1.75;;;1.00;;
56039;SDS011;43937;41.366;2.072;2022-10-23T00:49:02;5.85;;;1.73;;
56039;SDS011;43937;41.366;2.072;2022-10-23T00:51:29;2.50;;;1.33;;
56039;SDS011;43937;41.366;2.072;2022-10-23T00:53:58;1.83;;;1.35;;
56039;SDS011;43937;41.366;2.072;2022-10-23T00:56:24;3.60;;;2.17;;
56039;SDS011;43937;41.366;2.072;2022-10-23T00:58:50;10.52;;;2.45;;
56039;SDS011;43937;41.366;2.072;2022-10-23T01:01:17;3.28;;;0.90;;
56039;SDS011;43937;41.366;2.072;2022-10-23T01:03:44;3.25;;;1.80;;
56039;SDS011;43937;41.366;2.072;2022-10-23T01:11:47;1.65;;;1.13;;
56039;SDS011;43937;41.366;2.072;2022-10-23T01:14:52;2.05;;;1.00;;
56039;SDS011;43937;41.366;2.072;2022-10-23T01:35:12;1.85;;;1.40;;
56039;SDS011;43937;41.366;2.072;2022-10-23T01:37:43;2.00;;;1.50;;
56039;SDS011;43937;41.366;2.072;2022-10-23T01:46:16;2.10;;;1.35;;
56039;SDS011;43937;41.366;2.072;2022-10-23T01:48:45;4.68;;;1.48;;
56039;SDS011;43937;41.366;2.072;2022-10-23T01:51:13;3.38;;;1.55;;
56039;SDS011;43937;41.366;2.072;2022-10-23T01:53:41;1.20;;;1.10;;
56039;SDS011;43937;41.366;2.072;2022-10-23T01:56:09;1.40;;;1.15;;
56039;SDS011;43937;41.366;2.072;2022-10-23T01:58:37;2.03;;;1.02;;
56039;SDS011;43937;41.366;2.072;2022-10-23T02:01:27;0.93;;;0.75;;
56039;SDS011;43937;41.366;2.072;2022-10-23T02:03:54;3.67;;;1.42;;
56039;SDS011;43937;41.366;2.072;2022-10-23T02:06:21;1.88;;;1.35;;
56039;SDS011;43937;41.366;2.072;2022-10-23T02:08:47;1.42;;;1.00;;
56039;SDS011;43937;41.366;2.072;2022-10-23T02:11:13;2.75;;;1.00;;
56039;SDS011;43937;41.366;2.072;2022-10-23T02:16:37;3.50;;;1.83;;
56039;SDS011;43937;41.366;2.072;2022-10-23T02:21:50;1.77;;;1.48;;
56039;SDS011;43937;41.366;2.072;2022-10-23T02:24:37;3.50;;;1.75;;
56039;SDS011;43937;41.366;2.072;2022-10-23T02:27:14;2.00;;;1.30;;
56039;SDS011;43937;41.366;2.072;2022-10-23T02:32:50;4.07;;;2.05;;
56039;SDS011;43937;41.366;2.072;2022-10-23T02:35:19;2.30;;;1.23;;
56039;SDS011;43937;41.366;2.072;2022-10-23T02:37:59;1.45;;;0.77;;
56039;SDS011;43937;41.366;2.072;2022-10-23T02:40:29;0.95;;;0.80;;
56039;SDS011;43937;41.366;2.072;2022-10-23T02:43:13;0.55;;;0.55;;
56039;SDS011;43937;41.366;2.072;2022-10-23T02:46:02;2.47;;;0.85;;
56039;SDS011;43937;41.366;2.072;2022-10-23T02:56:56;3.10;;;1.50;;
56039;SDS011;43937;41.366;2.072;2022-10-23T02:59:35;2.63;;;1.80;;
56039;SDS011;43937;41.366;2.072;2022-10-23T03:02:20;4.40;;;2.13;;
56039;SDS011;43937;41.366;2.072;2022-10-23T03:04:50;6.85;;;1.73;;
56039;SDS011;43937;41.366;2.072;2022-10-23T03:07:18;3.22;;;1.65;;
56039;SDS011;43937;41.366;2.072;2022-10-23T03:09:44;5.13;;;1.70;;
56039;SDS011;43937;41.366;2.072;2022-10-23T03:12:10;1.95;;;1.33;;
56039;SDS011;43937;41.366;2.072;2022-10-23T03:14:35;2.05;;;1.42;;
56039;SDS011;43937;41.366;2.072;2022-10-23T03:17:00;6.07;;;1.83;;
56039;SDS011;43937;41.366;2.072;2022-10-23T03:19:26;7.30;;;3.08;;
56039;SDS011;43937;41.366;2.072;2022-10-23T03:21:52;1.77;;;1.40;;
56039;SDS011;43937;41.366;2.072;2022-10-23T03:24:17;3.05;;;1.63;;
56039;SDS011;43937;41.366;2.072;2022-10-23T03:26:42;5.35;;;1.83;;
56039;SDS011;43937;41.366;2.072;2022-10-23T03:29:08;2.80;;;1.25;;
56039;SDS011;43937;41.366;2.072;2022-10-23T03:31:33;1.33;;;1.23;;
56039;SDS011;43937;41.366;2.072;2022-10-23T03:33:59;7.28;;;1.30;;
56039;SDS011;43937;41.366;2.072;2022-10-23T03:36:24;3.30;;;1.45;;
56039;SDS011;43937;41.366;2.072;2022-10-23T03:38:49;4.10;;;1.02;;
56039;SDS011;43937;41.366;2.072;2022-10-23T03:41:15;6.30;;;1.67;;
56039;SDS011;43937;41.366;2.072;2022-10-23T03:43:41;2.67;;;1.33;;
56039;SDS011;43937;41.366;2.072;2022-10-23T03:46:06;1.67;;;1.20;;
56039;SDS011;43937;41.366;2.072;2022-10-23T03:48:36;2.10;;;1.27;;
56039;SDS011;43937;41.366;2.072;2022-10-23T03:51:02;2.20;;;1.38;;
56039;SDS011;43937;41.366;2.072;2022-10-23T03:53:31;1.33;;;0.90;;
56039;SDS011;43937;41.366;2.072;2022-10-23T03:55:56;3.33;;;1.35;;
56039;SDS011;43937;41.366;2.072;2022-10-23T03:58:22;3.33;;;1.40;;
56039;SDS011;43937;41.366;2.072;2022-10-23T04:00:48;2.88;;;1.40;;
56039;SDS011;43937;41.366;2.072;2022-10-23T04:03:13;4.28;;;1.92;;
56039;SDS011;43937;41.366;2.072;2022-10-23T04:05:42;2.33;;;1.40;;
56039;SDS011;43937;41.366;2.072;2022-10-23T04:08:07;2.70;;;1.63;;
56039;SDS011;43937;41.366;2.072;2022-10-23T04:10:33;5.05;;;1.55;;
56039;SDS011;43937;41.366;2.072;2022-10-23T04:12:58;3.85;;;1.65;;
56039;SDS011;43937;41.366;2.072;2022-10-23T04:15:24;1.55;;;1.42;;
56039;SDS011;43937;41.366;2.072;2022-10-23T04:17:49;3.63;;;1.65;;
56039;SDS011;43937;41.366;2.072;2022-10-23T04:22:22;1.92;;;1.23;;
56039;SDS011;43937;41.366;2.072;2022-10-23T04:24:47;4.32;;;1.98;;
56039;SDS011;43937;41.366;2.072;2022-10-23T04:27:13;1.52;;;1.30;;
56039;SDS011;43937;41.366;2.072;2022-10-23T04:29:38;3.33;;;1.63;;
56039;SDS011;43937;41.366;2.072;2022-10-23T04:32:05;4.93;;;1.60;;
56039;SDS011;43937;41.366;2.072;2022-10-23T04:34:31;4.70;;;1.48;;
56039;SDS011;43937;41.366;2.072;2022-10-23T04:36:56;4.03;;;1.38;;
56039;SDS011;43937;41.366;2.072;2022-10-23T04:39:22;1.55;;;1.00;;
56039;SDS011;43937;41.366;2.072;2022-10-23T04:41:47;11.13;;;2.03;;
56039;SDS011;43937;41.366;2.072;2022-10-23T04:44:13;2.58;;;1.48;;
56039;SDS011;43937;41.366;2.072;2022-10-23T04:46:38;2.70;;;1.48;;
56039;SDS011;43937;41.366;2.072;2022-10-23T04:49:03;6.15;;;2.00;;
56039;SDS011;43937;41.366;2.072;2022-10-23T04:51:29;2.45;;;1.20;;
56039;SDS011;43937;41.366;2.072;2022-10-23T04:53:54;1.27;;;1.10;;
56039;SDS011;43937;41.366;2.072;2022-10-23T04:56:20;3.15;;;2.00;;
56039;SDS011;43937;41.366;2.072;2022-10-23T04:58:45;1.30;;;0.90;;
56039;SDS011;43937;41.366;2.072;2022-10-23T05:01:11;4.32;;;1.20;;
56039;SDS011;43937;41.366;2.072;2022-10-23T05:03:36;1.42;;;1.33;;
56039;SDS011;43937;41.366;2.072;2022-10-23T05:06:02;1.40;;;0.70;;
56039;SDS011;43937;41.366;2.072;2022-10-23T05:08:28;4.65;;;1.80;;
56039;SDS011;43937;41.366;2.072;2022-10-23T05:10:54;1.45;;;1.17;;
56039;SDS011;43937;41.366;2.072;2022-10-23T05:13:19;2.67;;;1.20;;
56039;SDS011;43937;41.366;2.072;2022-10-23T05:15:46;6.50;;;1.83;;
56039;SDS011;43937;41.366;2.072;2022-10-23T05:18:34;1.80;;;1.00;;
56039;SDS011;43937;41.366;2.072;2022-10-23T05:21:01;2.47;;;1.40;;
56039;SDS011;43937;41.366;2.072;2022-10-23T05:23:32;3.03;;;1.05;;
56039;SDS011;43937;41.366;2.072;2022-10-23T05:26:02;4.18;;;1.63;;
56039;SDS011;43937;41.366;2.072;2022-10-23T05:28:28;2.90;;;1.60;;
56039;SDS011;43937;41.366;2.072;2022-10-23T05:30:54;1.20;;;1.08;;
56039;SDS011;43937;41.366;2.072;2022-10-23T05:33:22;1.80;;;1.13;;
56039;SDS011;43937;41.366;2.072;2022-10-23T05:35:48;5.13;;;1.40;;
56039;SDS011;43937;41.366;2.072;2022-10-23T05:38:14;2.15;;;1.48;;
56039;SDS011;43937;41.366;2.072;2022-10-23T05:40:40;1.70;;;1.15;;
56039;SDS011;43937;41.366;2.072;2022-10-23T05:43:05;2.92;;;2.08;;
56039;SDS011;43937;41.366;2.072;2022-10-23T05:45:30;1.95;;;1.20;;
56039;SDS011;43937;41.366;2.072;2022-10-23T05:47:56;3.35;;;1.60;;
56039;SDS011;43937;41.366;2.072;2022-10-23T05:50:21;7.22;;;1.88;;
56039;SDS011;43937;41.366;2.072;2022-10-23T05:52:47;2.65;;;1.38;;
56039;SDS011;43937;41.366;2.072;2022-10-23T05:55:13;7.45;;;1.10;;
56039;SDS011;43937;41.366;2.072;2022-10-23T05:57:39;11.70;;;2.10;;
56039;SDS011;43937;41.366;2.072;2022-10-23T06:01:18;2.65;;;1.83;;
56039;SDS011;43937;41.366;2.072;2022-10-23T06:03:43;3.33;;;1.55;;
56039;SDS011;43937;41.366;2.072;2022-10-23T06:06:09;4.43;;;1.67;;
56039;SDS011;43937;41.366;2.072;2022-10-23T06:08:34;4.40;;;1.35;;
56039;SDS011;43937;41.366;2.072;2022-10-23T06:11:10;4.45;;;1.70;;
56039;SDS011;43937;41.366;2.072;2022-10-23T06:13:37;3.83;;;1.92;;
56039;SDS011;43937;41.366;2.072;2022-10-23T06:16:07;4.18;;;1.50;;
56039;SDS011;43937;41.366;2.072;2022-10-23T06:18:33;2.75;;;1.50;;
56039;SDS011;43937;41.366;2.072;2022-10-23T06:20:59;2.95;;;1.63;;
56039;SDS011;43937;41.366;2.072;2022-10-23T06:23:25;5.32;;;1.85;;
56039;SDS011;43937;41.366;2.072;2022-10-23T06:25:51;3.17;;;1.83;;
56039;SDS011;43937;41.366;2.072;2022-10-23T06:28:18;2.17;;;1.50;;
56039;SDS011;43937;41.366;2.072;2022-10-23T06:30:43;3.80;;;1.83;;
56039;SDS011;43937;41.366;2.072;2022-10-23T06:33:09;3.53;;;1.55;;
56039;SDS011;43937;41.366;2.072;2022-10-23T06:35:34;3.50;;;1.55;;
56039;SDS011;43937;41.366;2.072;2022-10-23T06:38:00;3.97;;;1.60;;
56039;SDS011;43937;41.366;2.072;2022-10-23T06:40:25;1.92;;;1.10;;
56039;SDS011;43937;41.366;2.072;2022-10-23T06:42:50;5.32;;;1.80;;
56039;SDS011;43937;41.366;2.072;2022-10-23T06:45:16;2.85;;;1.77;;
56039;SDS011;43937;41.366;2.072;2022-10-23T06:47:41;1.27;;;1.13;;
56039;SDS011;43937;41.366;2.072;2022-10-23T06:50:33;6.28;;;1.55;;
56039;SDS011;43937;41.366;2.072;2022-10-23T06:53:00;3.17;;;1.88;;
56039;SDS011;43937;41.366;2.072;2022-10-23T06:55:26;2.00;;;1.40;;
56039;SDS011;43937;41.366;2.072;2022-10-23T06:57:52;2.03;;;1.63;;
56039;SDS011;43937;41.366;2.072;2022-10-23T07:00:17;4.47;;;1.95;;
56039;SDS011;43937;41.366;2.072;2022-10-23T07:02:43;3.05;;;1.80;;
56039;SDS011;43937;41.366;2.072;2022-10-23T07:07:23;7.97;;;2.67;;
56039;SDS011;43937;41.366;2.072;2022-10-23T07:09:49;3.70;;;2.72;;
56039;SDS011;43937;41.366;2.072;2022-10-23T07:12:14;5.70;;;3.00;;
56039;SDS011;43937;41.366;2.072;2022-10-23T07:14:39;9.00;;;3.40;;
56039;SDS011;43937;41.366;2.072;2022-10-23T07:17:05;3.25;;;2.35;;
56039;SDS011;43937;41.366;2.072;2022-10-23T07:19:30;3.63;;;2.28;;
56039;SDS011;43937;41.366;2.072;2022-10-23T07:21:56;5.18;;;3.00;;
56039;SDS011;43937;41.366;2.072;2022-10-23T07:24:21;2.38;;;1.85;;
56039;SDS011;43937;41.366;2.072;2022-10-23T07:26:47;1.98;;;1.13;;
56039;SDS011;43937;41.366;2.072;2022-10-23T07:29:12;1.65;;;1.13;;
56039;SDS011;43937;41.366;2.072;2022-10-23T07:31:38;1.75;;;1.25;;
56039;SDS011;43937;41.366;2.072;2022-10-23T07:34:03;6.97;;;1.70;;
56039;SDS011;43937;41.366;2.072;2022-10-23T07:36:30;4.25;;;1.90;;
56039;SDS011;43937;41.366;2.072;2022-10-23T07:38:55;5.60;;;1.75;;
56039;SDS011;43937;41.366;2.072;2022-10-23T07:42:56;2.88;;;1.85;;
56039;SDS011;43937;41.366;2.072;2022-10-23T07:45:22;5.72;;;2.13;;
56039;SDS011;43937;41.366;2.072;2022-10-23T07:47:50;2.92;;;2.17;;
56039;SDS011;43937;41.366;2.072;2022-10-23T07:50:16;4.32;;;1.75;;
56039;SDS011;43937;41.366;2.072;2022-10-23T07:52:42;3.00;;;1.75;;
56039;SDS011;43937;41.366;2.072;2022-10-23T07:55:08;3.13;;;1.88;;
56039;SDS011;43937;41.366;2.072;2022-10-23T07:57:33;1.30;;;1.10;;
56039;SDS011;43937;41.366;2.072;2022-10-23T07:59:59;2.60;;;1.27;;
56039;SDS011;43937;41.366;2.072;2022-10-23T08:02:24;3.15;;;1.35;;
56039;SDS011;43937;41.366;2.072;2022-10-23T08:04:50;1.90;;;1.20;;
56039;SDS011;43937;41.366;2.072;2022-10-23T08:07:15;5.28;;;2.05;;
56039;SDS011;43937;41.366;2.072;2022-10-23T08:09:41;2.75;;;1.48;;
56039;SDS011;43937;41.366;2.072;2022-10-23T08:12:06;2.45;;;1.58;;
56039;SDS011;43937;41.366;2.072;2022-10-23T08:14:32;3.30;;;1.95;;
56039;SDS011;43937;41.366;2.072;2022-10-23T08:16:58;5.20;;;2.70;;
56039;SDS011;43937;41.366;2.072;2022-10-23T08:19:23;4.15;;;2.45;;
56039;SDS011;43937;41.366;2.072;2022-10-23T08:21:49;7.57;;;4.15;;
56039;SDS011;43937;41.366;2.072;2022-10-23T08:24:18;5.25;;;3.08;;
56039;SDS011;43937;41.366;2.072;2022-10-23T08:26:44;12.63;;;3.90;;
56039;SDS011;43937;41.366;2.072;2022-10-23T08:29:09;10.45;;;4.93;;
56039;SDS011;43937;41.366;2.072;2022-10-23T08:31:35;9.98;;;5.38;;
56039;SDS011;43937;41.366;2.072;2022-10-23T08:34:00;9.90;;;3.85;;
56039;SDS011;43937;41.366;2.072;2022-10-23T08:36:26;4.47;;;2.95;;
56039;SDS011;43937;41.366;2.072;2022-10-23T08:38:53;6.53;;;2.78;;
56039;SDS011;43937;41.366;2.072;2022-10-23T08:44:31;4.22;;;2.70;;
56039;SDS011;43937;41.366;2.072;2022-10-23T08:47:10;5.43;;;2.60;;
56039;SDS011;43937;41.366;2.072;2022-10-23T08:56:11;7.50;;;4.03;;
56039;SDS011;43937;41.366;2.072;2022-10-23T08:58:52;8.95;;;3.58;;
56039;SDS011;43937;41.366;2.072;2022-10-23T09:04:11;8.48;;;3.92;;
56039;SDS011;43937;41.366;2.072;2022-10-23T09:19:48;7.22;;;3.90;;
56039;SDS011;43937;41.366;2.072;2022-10-23T09:22:18;9.38;;;3.92;;
56039;SDS011;43937;41.366;2.072;2022-10-23T09:24:43;5.65;;;2.97;;
56039;SDS011;43937;41.366;2.072;2022-10-23T09:27:12;5.40;;;3.45;;
56039;SDS011;43937;41.366;2.072;2022-10-23T09:29:51;7.30;;;3.10;;
56039;SDS011;43937;41.366;2.072;2022-10-23T09:32:19;8.55;;;3.60;;
56039;SDS011;43937;41.366;2.072;2022-10-23T09:34:56;17.25;;;5.60;;
56039;SDS011;43937;41.366;2.072;2022-10-23T09:37:24;5.53;;;3.95;;
56039;SDS011;43937;41.366;2.072;2022-10-23T09:39:59;7.32;;;4.80;;
56039;SDS011;43937;41.366;2.072;2022-10-23T09:42:28;8.23;;;4.70;;
56039;SDS011;43937;41.366;2.072;2022-10-23T09:44:53;14.10;;;4.47;;
56039;SDS011;43937;41.366;2.072;2022-10-23T09:47:20;11.98;;;5.28;;
56039;SDS011;43937;41.366;2.072;2022-10-23T09:49:52;13.25;;;5.93;;
56039;SDS011;43937;41.366;2.072;2022-10-23T09:52:23;10.25;;;4.85;;
56039;SDS011;43937;41.366;2.072;2022-10-23T09:55:00;8.73;;;5.47;;
56039;SDS011;43937;41.366;2.072;2022-10-23T09:59:56;9.88;;;3.75;;
56039;SDS011;43937;41.366;2.072;2022-10-23T10:02:28;7.35;;;3.90;;
56039;SDS011;43937;41.366;2.072;2022-10-23T10:04:56;12.05;;;4.35;;
56039;SDS011;43937;41.366;2.072;2022-10-23T10:07:23;13.80;;;4.25;;
56039;SDS011;43937;41.366;2.072;2022-10-23T10:09:52;18.90;;;4.47;;
56039;SDS011;43937;41.366;2.072;2022-10-23T10:12:40;6.90;;;4.18;;
56039;SDS011;43937;41.366;2.072;2022-10-23T10:20:40;5.40;;;2.45;;
56039;SDS011;43937;41.366;2.072;2022-10-23T10:30:15;6.20;;;2.07;;
56039;SDS011;43937;41.366;2.072;2022-10-23T10:40:42;5.75;;;2.13;;
56039;SDS011;43937;41.366;2.072;2022-10-23T10:43:27;4.47;;;1.85;;
56039;SDS011;43937;41.366;2.072;2022-10-23T10:49:26;14.15;;;2.40;;
56039;SDS011;43937;41.366;2.072;2022-10-23T10:52:02;3.92;;;2.33;;
56039;SDS011;43937;41.366;2.072;2022-10-23T10:55:19;7.05;;;3.05;;
56039;SDS011;43937;41.366;2.072;2022-10-23T10:57:56;6.88;;;2.75;;
56039;SDS011;43937;41.366;2.072;2022-10-23T11:00:25;11.13;;;6.00;;
56039;SDS011;43937;41.366;2.072;2022-10-23T11:05:49;11.38;;;2.85;;
56039;SDS011;43937;41.366;2.072;2022-10-23T11:10:44;5.07;;;3.45;;
56039;SDS011;43937;41.366;2.072;2022-10-23T11:13:17;7.40;;;4.10;;
56039;SDS011;43937;41.366;2.072;2022-10-23T11:16:12;11.60;;;6.13;;
56039;SDS011;43937;41.366;2.072;2022-10-23T11:18:41;14.23;;;5.97;;
56039;SDS011;43937;41.366;2.072;2022-10-23T11:21:18;26.42;;;7.10;;
56039;SDS011;43937;41.366;2.072;2022-10-23T11:32:13;14.77;;;4.05;;
56039;SDS011;43937;41.366;2.072;2022-10-23T11:38:15;12.48;;;3.50;;
56039;SDS011;43937;41.366;2.072;2022-10-23T11:40:44;8.15;;;5.25;;
56039;SDS011;43937;41.366;2.072;2022-10-23T11:43:25;11.30;;;7.82;;
56039;SDS011;43937;41.366;2.072;2022-10-23T11:45:56;10.00;;;4.15;;
56039;SDS011;43937;41.366;2.072;2022-10-23T11:48:33;12.52;;;3.63;;
56039;SDS011;43937;41.366;2.072;2022-10-23T11:50:59;7.70;;;2.67;;
56039;SDS011;43937;41.366;2.072;2022-10-23T11:56:22;7.25;;;3.65;;
56039;SDS011;43937;41.366;2.072;2022-10-23T11:58:42;11.65;;;3.50;;
56039;SDS011;43937;41.366;2.072;2022-10-23T12:06:48;6.30;;;2.97;;
56039;SDS011;43937;41.366;2.072;2022-10-23T12:09:27;15.25;;;3.00;;
56039;SDS011;43937;41.366;2.072;2022-10-23T12:12:01;5.13;;;2.50;;
56039;SDS011;43937;41.366;2.072;2022-10-23T12:19:52;5.10;;;2.85;;
56039;SDS011;43937;41.366;2.072;2022-10-23T12:22:20;8.35;;;3.45;;
56039;SDS011;43937;41.366;2.072;2022-10-23T12:28:18;6.82;;;3.08;;
56039;SDS011;43937;41.366;2.072;2022-10-23T12:30:28;6.03;;;3.08;;
56039;SDS011;43937;41.366;2.072;2022-10-23T12:38:32;5.10;;;2.70;;
56039;SDS011;43937;41.366;2.072;2022-10-23T12:41:09;10.60;;;3.85;;
56039;SDS011;43937;41.366;2.072;2022-10-23T12:44:23;10.52;;;2.75;;
56039;SDS011;43937;41.366;2.072;2022-10-23T12:46:39;7.35;;;3.22;;
56039;SDS011;43937;41.366;2.072;2022-10-23T12:49:13;15.95;;;4.32;;
56039;SDS011;43937;41.366;2.072;2022-10-23T12:51:41;11.40;;;3.35;;
56039;SDS011;43937;41.366;2.072;2022-10-23T12:54:17;5.93;;;3.03;;
56039;SDS011;43937;41.366;2.072;2022-10-23T12:56:44;6.43;;;3.28;;
56039;SDS011;43937;41.366;2.072;2022-10-23T12:59:22;10.45;;;4.47;;
56039;SDS011;43937;41.366;2.072;2022-10-23T13:01:51;9.30;;;4.50;;
56039;SDS011;43937;41.366;2.072;2022-10-23T13:06:53;6.97;;;3.25;;
56039;SDS011;43937;41.366;2.072;2022-10-23T13:09:22;12.15;;;2.70;;
56039;SDS011;43937;41.366;2.072;2022-10-23T13:11:56;9.27;;;3.22;;
56039;SDS011;43937;41.366;2.072;2022-10-23T13:14:52;13.95;;;4.05;;
56039;SDS011;43937;41.366;2.072;2022-10-23T13:17:18;14.90;;;4.53;;
56039;SDS011;43937;41.366;2.072;2022-10-23T13:19:44;10.80;;;4.00;;
56039;SDS011;43937;41.366;2.072;2022-10-23T13:22:16;11.73;;;3.10;;
56039;SDS011;43937;41.366;2.072;2022-10-23T13:24:45;7.05;;;3.20;;
56039;SDS011;43937;41.366;2.072;2022-10-23T13:30:23;8.48;;;3.72;;
56039;SDS011;43937;41.366;2.072;2022-10-23T13:32:52;6.05;;;2.63;;
56039;SDS011;43937;41.366;2.072;2022-10-23T13:35:19;9.40;;;3.38;;
56039;SDS011;43937;41.366;2.072;2022-10-23T13:37:46;4.78;;;2.35;;
56039;SDS011;43937;41.366;2.072;2022-10-23T13:40:25;7.40;;;2.97;;
56039;SDS011;43937;41.366;2.072;2022-10-23T13:42:52;6.05;;;2.42;;
56039;SDS011;43937;41.366;2.072;2022-10-23T13:45:20;5.70;;;3.08;;
56039;SDS011;43937;41.366;2.072;2022-10-23T13:47:47;7.22;;;2.90;;
56039;SDS011;43937;41.366;2.072;2022-10-23T13:50:13;10.45;;;3.03;;
56039;SDS011;43937;41.366;2.072;2022-10-23T13:52:39;8.95;;;2.88;;
56039;SDS011;43937;41.366;2.072;2022-10-23T13:55:16;7.47;;;2.50;;
56039;SDS011;43937;41.366;2.072;2022-10-23T13:57:46;3.03;;;1.65;;
56039;SDS011;43937;41.366;2.072;2022-10-23T14:00:11;5.25;;;1.80;;
56039;SDS011;43937;41.366;2.072;2022-10-23T14:02:37;5.70;;;2.40;;
56039;SDS011;43937;41.366;2.072;2022-10-23T14:05:02;4.78;;;2.25;;
56039;SDS011;43937;41.366;2.072;2022-10-23T14:07:28;6.25;;;2.78;;
56039;SDS011;43937;41.366;2.072;2022-10-23T14:09:53;12.57;;;2.55;;
56039;SDS011;43937;41.366;2.072;2022-10-23T14:12:19;10.43;;;3.08;;
56039;SDS011;43937;41.366;2.072;2022-10-23T14:14:49;9.13;;;3.10;;
56039;SDS011;43937;41.366;2.072;2022-10-23T14:17:15;6.87;;;2.83;;
56039;SDS011;43937;41.366;2.072;2022-10-23T14:19:41;10.35;;;2.78;;
56039;SDS011;43937;41.366;2.072;2022-10-23T14:22:06;14.90;;;3.15;;
56039;SDS011;43937;41.366;2.072;2022-10-23T14:24:32;18.25;;;4.45;;
56039;SDS011;43937;41.366;2.072;2022-10-23T14:26:57;8.32;;;3.28;;
56039;SDS011;43937;41.366;2.072;2022-10-23T14:29:23;8.45;;;3.42;;
56039;SDS011;43937;41.366;2.072;2022-10-23T14:31:49;10.70;;;3.20;;
56039;SDS011;43937;41.366;2.072;2022-10-23T14:34:14;8.50;;;3.53;;
56039;SDS011;43937;41.366;2.072;2022-10-23T14:36:40;12.55;;;3.38;;
56039;SDS011;43937;41.366;2.072;2022-10-23T14:39:05;15.98;;;3.25;;
56039;SDS011;43937;41.366;2.072;2022-10-23T14:41:31;13.00;;;3.28;;
56039;SDS011;43937;41.366;2.072;2022-10-23T14:43:56;21.77;;;2.92;;
56039;SDS011;43937;41.366;2.072;2022-10-23T14:47:15;8.98;;;3.17;;
56039;SDS011;43937;41.366;2.072;2022-10-23T14:49:41;5.03;;;3.05;;
56039;SDS011;43937;41.366;2.072;2022-10-23T14:52:08;7.65;;;2.15;;
56039;SDS011;43937;41.366;2.072;2022-10-23T14:54:33;7.47;;;2.60;;
56039;SDS011;43937;41.366;2.072;2022-10-23T14:57:00;6.07;;;3.03;;
56039;SDS011;43937;41.366;2.072;2022-10-23T14:59:26;6.97;;;3.38;;
56039;SDS011;43937;41.366;2.072;2022-10-23T15:01:52;19.05;;;3.80;;
56039;SDS011;43937;41.366;2.072;2022-10-23T15:04:17;4.50;;;2.55;;
56039;SDS011;43937;41.366;2.072;2022-10-23T15:06:44;12.05;;;3.08;;
56039;SDS011;43937;41.366;2.072;2022-10-23T15:09:11;6.47;;;3.20;;
56039;SDS011;43937;41.366;2.072;2022-10-23T15:11:37;8.70;;;4.07;;
56039;SDS011;43937;41.366;2.072;2022-10-23T15:14:02;6.47;;;2.55;;
56039;SDS011;43937;41.366;2.072;2022-10-23T15:16:28;6.53;;;3.47;;
56039;SDS011;43937;41.366;2.072;2022-10-23T15:18:53;6.10;;;2.85;;
56039;SDS011;43937;41.366;2.072;2022-10-23T15:21:19;11.23;;;3.15;;
56039;SDS011;43937;41.366;2.072;2022-10-23T15:23:44;7.03;;;3.15;;
56039;SDS011;43937;41.366;2.072;2022-10-23T15:26:12;6.10;;;2.90;;
56039;SDS011;43937;41.366;2.072;2022-10-23T15:28:55;5.63;;;2.85;;
56039;SDS011;43937;41.366;2.072;2022-10-23T15:31:38;4.10;;;2.00;;
56039;SDS011;43937;41.366;2.072;2022-10-23T15:36:30;10.75;;;2.80;;
56039;SDS011;43937;41.366;2.072;2022-10-23T15:38:56;6.20;;;2.30;;
56039;SDS011;43937;41.366;2.072;2022-10-23T15:41:31;8.57;;;2.45;;
56039;SDS011;43937;41.366;2.072;2022-10-23T15:43:58;5.72;;;2.95;;
56039;SDS011;43937;41.366;2.072;2022-10-23T15:46:25;6.93;;;2.83;;
56039;SDS011;43937;41.366;2.072;2022-10-23T15:48:50;6.25;;;2.28;;
56039;SDS011;43937;41.366;2.072;2022-10-23T15:51:17;8.40;;;2.42;;
56039;SDS011;43937;41.366;2.072;2022-10-23T15:53:42;5.18;;;2.53;;
56039;SDS011;43937;41.366;2.072;2022-10-23T15:56:07;5.07;;;2.40;;
56039;SDS011;43937;41.366;2.072;2022-10-23T15:58:33;3.67;;;2.33;;
56039;SDS011;43937;41.366;2.072;2022-10-23T16:01:00;8.60;;;3.72;;
56039;SDS011;43937;41.366;2.072;2022-10-23T16:04:21;6.72;;;3.60;;
56039;SDS011;43937;41.366;2.072;2022-10-23T16:06:47;5.95;;;3.40;;
56039;SDS011;43937;41.366;2.072;2022-10-23T16:09:13;9.93;;;4.13;;
56039;SDS011;43937;41.366;2.072;2022-10-23T16:11:40;7.75;;;2.63;;
56039;SDS011;43937;41.366;2.072;2022-10-23T16:14:06;10.98;;;2.67;;
56039;SDS011;43937;41.366;2.072;2022-10-23T16:16:34;12.20;;;3.35;;
56039;SDS011;43937;41.366;2.072;2022-10-23T16:18:59;17.23;;;4.65;;
56039;SDS011;43937;41.366;2.072;2022-10-23T16:21:27;11.43;;;4.45;;
56039;SDS011;43937;41.366;2.072;2022-10-23T16:23:55;9.48;;;3.28;;
56039;SDS011;43937;41.366;2.072;2022-10-23T16:26:22;6.68;;;3.33;;
56039;SDS011;43937;41.366;2.072;2022-10-23T16:28:52;17.73;;;3.40;;
56039;SDS011;43937;41.366;2.072;2022-10-23T16:31:18;9.25;;;3.28;;
56039;SDS011;43937;41.366;2.072;2022-10-23T16:33:45;8.88;;;3.25;;
56039;SDS011;43937;41.366;2.072;2022-10-23T16:36:12;4.78;;;2.50;;
56039;SDS011;43937;41.366;2.072;2022-10-23T16:38:37;4.75;;;2.92;;
56039;SDS011;43937;41.366;2.072;2022-10-23T16:41:03;5.75;;;2.83;;
56039;SDS011;43937;41.366;2.072;2022-10-23T16:43:28;8.18;;;3.10;;
56039;SDS011;43937;41.366;2.072;2022-10-23T16:46:04;5.55;;;2.53;;
56039;SDS011;43937;41.366;2.072;2022-10-23T16:48:38;7.57;;;4.90;;
56039;SDS011;43937;41.366;2.072;2022-10-23T16:51:08;13.65;;;7.30;;
56039;SDS011;43937;41.366;2.072;2022-10-23T16:53:36;16.30;;;10.80;;
56039;SDS011;43937;41.366;2.072;2022-10-23T16:56:03;18.98;;;5.28;;
56039;SDS011;43937;41.366;2.072;2022-10-23T16:58:29;20.23;;;8.88;;
56039;SDS011;43937;41.366;2.072;2022-10-23T17:00:56;13.50;;;8.38;;
56039;SDS011;43937;41.366;2.072;2022-10-23T17:03:35;9.13;;;5.82;;
56039;SDS011;43937;41.366;2.072;2022-10-23T17:06:03;13.00;;;7.88;;
56039;SDS011;43937;41.366;2.072;2022-10-23T17:08:49;18.67;;;8.30;;
56039;SDS011;43937;41.366;2.072;2022-10-23T17:11:50;9.02;;;5.20;;
56039;SDS011;43937;41.366;2.072;2022-10-23T17:14:18;9.68;;;4.50;;
56039;SDS011;43937;41.366;2.072;2022-10-23T17:16:48;14.70;;;4.82;;
56039;SDS011;43937;41.366;2.072;2022-10-23T17:19:16;9.48;;;4.40;;
56039;SDS011;43937;41.366;2.072;2022-10-23T17:21:43;6.65;;;4.35;;
56039;SDS011;43937;41.366;2.072;2022-10-23T17:24:09;18.77;;;5.55;;
56039;SDS011;43937;41.366;2.072;2022-10-23T17:26:35;8.65;;;5.18;;
56039;SDS011;43937;41.366;2.072;2022-10-23T17:29:02;12.93;;;5.07;;
56039;SDS011;43937;41.366;2.072;2022-10-23T17:31:31;10.02;;;4.60;;